sensor_id;sensor_type;location;lat;lon;timestamp;temperature;humidity
31783;DHT22;18351;47.560;9.708;2023-09-19T00:01:14;17.30;99.90
31783;DHT22;18351;47.560;9.708;2023-09-19T00:03:40;17.30;99.90
31783;DHT22;18351;47.560;9.708;2023-09-19T00:06:08;17.30;99.90
31783;DHT22;18351;47.560;9.708;2023-09-19T00:08:36;17.30;99.90
31783;DHT22;18351;47.560;9.708;2023-09-19T00:11:01;17.30;99.90
31783;DHT22;18351;47.560;9.708;2023-09-19T00:13:32;17.30;99.90
31783;DHT22;18351;47.560;9.708;2023-09-19T00:15:59;17.30;99.90
31783;DHT22;18351;47.560;9.708;2023-09-19T00:18:25;17.40;99.90
31783;DHT22;18351;47.560;9.708;2023-09-19T00:20:58;17.40;99.90
31783;DHT22;18351;47.560;9.708;2023-09-19T00:23:24;17.40;99.90
31783;DHT22;18351;47.560;9.708;2023-09-19T00:25:50;17.50;99.90
31783;DHT22;18351;47.560;9.708;2023-09-19T00:28:17;17.50;99.90
31783;DHT22;18351;47.560;9.708;2023-09-19T00:30:44;17.50;99.90
31783;DHT22;18351;47.560;9.708;2023-09-19T00:33:10;17.50;99.90
31783;DHT22;18351;47.560;9.708;2023-09-19T00:35:37;17.50;99.90
31783;DHT22;18351;47.560;9.708;2023-09-19T00:38:02;17.50;99.90
31783;DHT22;18351;47.560;9.708;2023-09-19T00:40:29;17.50;99.90
31783;DHT22;18351;47.560;9.708;2023-09-19T00:42:58;17.50;99.90
31783;DHT22;18351;47.560;9.708;2023-09-19T00:45:25;17.40;99.90
31783;DHT22;18351;47.560;9.708;2023-09-19T00:47:51;17.30;99.90
31783;DHT22;18351;47.560;9.708;2023-09-19T00:50:23;17.30;99.90
31783;DHT22;18351;47.560;9.708;2023-09-19T00:52:53;17.30;99.90
31783;DHT22;18351;47.560;9.708;2023-09-19T00:55:19;17.20;99.90
31783;DHT22;18351;47.560;9.708;2023-09-19T00:57:47;17.20;99.90
31783;DHT22;18351;47.560;9.708;2023-09-19T01:00:15;17.20;99.90
31783;DHT22;18351;47.560;9.708;2023-09-19T01:02:45;17.20;99.90
31783;DHT22;18351;47.560;9.708;2023-09-19T01:05:11;17.20;99.90
31783;DHT22;18351;47.560;9.708;2023-09-19T01:07:38;17.10;99.90
31783;DHT22;18351;47.560;9.708;2023-09-19T01:10:08;17.10;99.90
31783;DHT22;18351;47.560;9.708;2023-09-19T01:21:19;17.00;99.90
31783;DHT22;18351;47.560;9.708;2023-09-19T01:32:05;17.10;99.90
31783;DHT22;18351;47.560;9.708;2023-09-19T01:34:47;17.10;99.90
31783;DHT22;18351;47.560;9.708;2023-09-19T01:37:13;17.20;99.90
31783;DHT22;18351;47.560;9.708;2023-09-19T01:39:40;17.20;99.90
31783;DHT22;18351;47.560;9.708;2023-09-19T01:42:21;17.30;99.90
31783;DHT22;18351;47.560;9.708;2023-09-19T01:44:59;17.30;99.90
31783;DHT22;18351;47.560;9.708;2023-09-19T01:50:13;17.30;99.90
31783;DHT22;18351;47.560;9.708;2023-09-19T01:52:42;17.30;99.90
31783;DHT22;18351;47.560;9.708;2023-09-19T01:55:12;17.40;99.90
31783;DHT22;18351;47.560;9.708;2023-09-19T01:57:49;17.40;99.90
31783;DHT22;18351;47.560;9.708;2023-09-19T02:00:18;17.40;99.90
31783;DHT22;18351;47.560;9.708;2023-09-19T02:02:47;17.50;99.90
31783;DHT22;18351;47.560;9.708;2023-09-19T02:05:13;17.50;99.90
31783;DHT22;18351;47.560;9.708;2023-09-19T02:07:39;17.50;99.90
31783;DHT22;18351;47.560;9.708;2023-09-19T02:10:06;17.50;99.90
31783;DHT22;18351;47.560;9.708;2023-09-19T02:12:32;17.50;99.90
31783;DHT22;18351;47.560;9.708;2023-09-19T02:14:58;17.50;99.90
31783;DHT22;18351;47.560;9.708;2023-09-19T02:17:25;17.50;99.90
31783;DHT22;18351;47.560;9.708;2023-09-19T02:19:54;17.50;99.90
31783;DHT22;18351;47.560;9.708;2023-09-19T02:22:20;17.50;99.90
31783;DHT22;18351;47.560;9.708;2023-09-19T02:24:46;17.60;99.90
31783;DHT22;18351;47.560;9.708;2023-09-19T02:27:13;17.60;99.90
31783;DHT22;18351;47.560;9.708;2023-09-19T02:29:41;17.50;99.90
31783;DHT22;18351;47.560;9.708;2023-09-19T02:32:07;17.50;99.90
31783;DHT22;18351;47.560;9.708;2023-09-19T02:34:32;17.50;99.90
31783;DHT22;18351;47.560;9.708;2023-09-19T02:37:07;17.50;99.90
31783;DHT22;18351;47.560;9.708;2023-09-19T02:39:36;17.50;99.90
31783;DHT22;18351;47.560;9.708;2023-09-19T02:42:02;17.50;99.90
31783;DHT22;18351;47.560;9.708;2023-09-19T02:44:29;17.40;99.90
31783;DHT22;18351;47.560;9.708;2023-09-19T02:46:55;17.40;99.90
31783;DHT22;18351;47.560;9.708;2023-09-19T02:49:22;17.40;99.90
31783;DHT22;18351;47.560;9.708;2023-09-19T02:51:48;17.40;99.90
31783;DHT22;18351;47.560;9.708;2023-09-19T02:54:14;17.40;99.90
31783;DHT22;18351;47.560;9.708;2023-09-19T02:56:41;17.40;99.90
31783;DHT22;18351;47.560;9.708;2023-09-19T02:59:06;17.40;99.90
31783;DHT22;18351;47.560;9.708;2023-09-19T03:01:32;17.40;99.90
31783;DHT22;18351;47.560;9.708;2023-09-19T03:03:59;17.40;99.90
31783;DHT22;18351;47.560;9.708;2023-09-19T03:06:24;17.40;99.90
31783;DHT22;18351;47.560;9.708;2023-09-19T03:08:50;17.40;99.90
31783;DHT22;18351;47.560;9.708;2023-09-19T03:11:17;17.40;99.90
31783;DHT22;18351;47.560;9.708;2023-09-19T03:13:50;17.40;99.90
31783;DHT22;18351;47.560;9.708;2023-09-19T03:16:16;17.40;99.90
31783;DHT22;18351;47.560;9.708;2023-09-19T03:18:41;17.40;99.90
31783;DHT22;18351;47.560;9.708;2023-09-19T03:21:07;17.30;99.90
31783;DHT22;18351;47.560;9.708;2023-09-19T03:23:33;17.30;99.90
31783;DHT22;18351;47.560;9.708;2023-09-19T03:25:58;17.30;99.90
31783;DHT22;18351;47.560;9.708;2023-09-19T03:28:24;17.30;99.90
31783;DHT22;18351;47.560;9.708;2023-09-19T03:31:01;17.30;99.90
31783;DHT22;18351;47.560;9.708;2023-09-19T03:33:26;17.30;99.90
31783;DHT22;18351;47.560;9.708;2023-09-19T03:35:53;17.30;99.90
31783;DHT22;18351;47.560;9.708;2023-09-19T03:38:19;17.30;99.90
31783;DHT22;18351;47.560;9.708;2023-09-19T03:40:45;17.30;99.90
31783;DHT22;18351;47.560;9.708;2023-09-19T03:43:10;17.30;99.90
31783;DHT22;18351;47.560;9.708;2023-09-19T03:45:36;17.40;99.90
31783;DHT22;18351;47.560;9.708;2023-09-19T03:48:10;17.40;99.90
31783;DHT22;18351;47.560;9.708;2023-09-19T03:50:36;17.50;99.90
31783;DHT22;18351;47.560;9.708;2023-09-19T03:53:02;17.50;99.90
31783;DHT22;18351;47.560;9.708;2023-09-19T03:55:28;17.50;99.90
31783;DHT22;18351;47.560;9.708;2023-09-19T03:57:56;17.60;99.90
31783;DHT22;18351;47.560;9.708;2023-09-19T04:00:21;17.50;99.90
31783;DHT22;18351;47.560;9.708;2023-09-19T04:02:51;17.60;99.90
31783;DHT22;18351;47.560;9.708;2023-09-19T04:05:17;17.60;99.90
31783;DHT22;18351;47.560;9.708;2023-09-19T04:07:43;17.70;99.90
31783;DHT22;18351;47.560;9.708;2023-09-19T04:10:09;17.70;99.90
31783;DHT22;18351;47.560;9.708;2023-09-19T04:12:37;17.70;99.90
31783;DHT22;18351;47.560;9.708;2023-09-19T04:15:04;17.70;99.90
31783;DHT22;18351;47.560;9.708;2023-09-19T04:17:30;17.70;99.90
31783;DHT22;18351;47.560;9.708;2023-09-19T04:19:58;17.70;99.90
31783;DHT22;18351;47.560;9.708;2023-09-19T04:22:23;17.70;99.90
31783;DHT22;18351;47.560;9.708;2023-09-19T04:24:49;17.70;99.90
31783;DHT22;18351;47.560;9.708;2023-09-19T04:27:15;17.70;99.90
31783;DHT22;18351;47.560;9.708;2023-09-19T04:29:41;17.70;99.90
31783;DHT22;18351;47.560;9.708;2023-09-19T04:32:09;17.70;99.90
31783;DHT22;18351;47.560;9.708;2023-09-19T04:34:35;17.80;99.90
31783;DHT22;18351;47.560;9.708;2023-09-19T04:37:01;17.70;99.90
31783;DHT22;18351;47.560;9.708;2023-09-19T04:39:27;17.60;99.90
31783;DHT22;18351;47.560;9.708;2023-09-19T04:41:54;17.60;99.90
31783;DHT22;18351;47.560;9.708;2023-09-19T04:44:20;17.50;99.90
31783;DHT22;18351;47.560;9.708;2023-09-19T04:46:48;17.40;99.90
31783;DHT22;18351;47.560;9.708;2023-09-19T04:49:14;17.40;99.90
31783;DHT22;18351;47.560;9.708;2023-09-19T04:51:40;17.40;99.90
31783;DHT22;18351;47.560;9.708;2023-09-19T04:54:05;17.40;99.90
31783;DHT22;18351;47.560;9.708;2023-09-19T04:56:32;17.30;99.90
31783;DHT22;18351;47.560;9.708;2023-09-19T04:58:58;17.30;99.90
31783;DHT22;18351;47.560;9.708;2023-09-19T05:01:24;17.30;99.90
31783;DHT22;18351;47.560;9.708;2023-09-19T05:03:50;17.30;99.90
31783;DHT22;18351;47.560;9.708;2023-09-19T05:06:21;17.30;99.90
31783;DHT22;18351;47.560;9.708;2023-09-19T05:08:48;17.30;99.90
31783;DHT22;18351;47.560;9.708;2023-09-19T05:11:21;17.30;99.90
31783;DHT22;18351;47.560;9.708;2023-09-19T05:13:48;17.30;99.90
31783;DHT22;18351;47.560;9.708;2023-09-19T05:16:18;17.40;99.90
31783;DHT22;18351;47.560;9.708;2023-09-19T05:18:44;17.30;99.90
31783;DHT22;18351;47.560;9.708;2023-09-19T05:21:10;17.30;99.90
31783;DHT22;18351;47.560;9.708;2023-09-19T05:23:35;17.30;99.90
31783;DHT22;18351;47.560;9.708;2023-09-19T05:26:02;17.30;99.90
31783;DHT22;18351;47.560;9.708;2023-09-19T05:28:29;17.40;99.90
31783;DHT22;18351;47.560;9.708;2023-09-19T05:30:55;17.40;99.90
31783;DHT22;18351;47.560;9.708;2023-09-19T05:33:20;17.40;99.90
31783;DHT22;18351;47.560;9.708;2023-09-19T05:35:48;17.40;99.90
31783;DHT22;18351;47.560;9.708;2023-09-19T05:38:13;17.40;99.90
31783;DHT22;18351;47.560;9.708;2023-09-19T05:40:41;17.40;99.90
31783;DHT22;18351;47.560;9.708;2023-09-19T05:43:08;17.40;99.90
31783;DHT22;18351;47.560;9.708;2023-09-19T05:45:34;17.40;99.90
31783;DHT22;18351;47.560;9.708;2023-09-19T05:48:16;17.50;99.90
31783;DHT22;18351;47.560;9.708;2023-09-19T05:50:42;17.50;99.90
31783;DHT22;18351;47.560;9.708;2023-09-19T05:53:08;17.50;99.90
31783;DHT22;18351;47.560;9.708;2023-09-19T05:55:38;17.50;99.90
31783;DHT22;18351;47.560;9.708;2023-09-19T05:58:04;17.50;99.90
31783;DHT22;18351;47.560;9.708;2023-09-19T06:00:29;17.50;99.90
31783;DHT22;18351;47.560;9.708;2023-09-19T06:02:58;17.50;99.90
31783;DHT22;18351;47.560;9.708;2023-09-19T06:05:25;17.50;99.90
31783;DHT22;18351;47.560;9.708;2023-09-19T06:07:57;17.50;99.90
31783;DHT22;18351;47.560;9.708;2023-09-19T06:10:25;17.60;99.90
31783;DHT22;18351;47.560;9.708;2023-09-19T06:12:52;17.50;99.90
31783;DHT22;18351;47.560;9.708;2023-09-19T06:15:18;17.50;99.90
31783;DHT22;18351;47.560;9.708;2023-09-19T06:17:48;17.50;99.90
31783;DHT22;18351;47.560;9.708;2023-09-19T06:20:15;17.50;99.90
31783;DHT22;18351;47.560;9.708;2023-09-19T06:22:41;17.50;99.90
31783;DHT22;18351;47.560;9.708;2023-09-19T06:25:08;17.60;99.90
31783;DHT22;18351;47.560;9.708;2023-09-19T06:27:37;17.50;99.90
31783;DHT22;18351;47.560;9.708;2023-09-19T06:30:03;17.60;99.90
31783;DHT22;18351;47.560;9.708;2023-09-19T06:32:28;17.60;99.90
31783;DHT22;18351;47.560;9.708;2023-09-19T06:34:54;17.70;99.90
31783;DHT22;18351;47.560;9.708;2023-09-19T06:37:20;17.80;99.90
31783;DHT22;18351;47.560;9.708;2023-09-19T06:39:47;17.80;99.90
31783;DHT22;18351;47.560;9.708;2023-09-19T06:42:15;17.80;99.90
31783;DHT22;18351;47.560;9.708;2023-09-19T06:44:42;17.90;99.90
31783;DHT22;18351;47.560;9.708;2023-09-19T06:47:08;18.10;99.90
31783;DHT22;18351;47.560;9.708;2023-09-19T06:49:35;18.20;99.90
31783;DHT22;18351;47.560;9.708;2023-09-19T06:52:00;18.40;99.90
31783;DHT22;18351;47.560;9.708;2023-09-19T06:54:26;18.50;99.90
31783;DHT22;18351;47.560;9.708;2023-09-19T06:56:56;18.60;99.90
31783;DHT22;18351;47.560;9.708;2023-09-19T06:59:24;18.70;99.90
31783;DHT22;18351;47.560;9.708;2023-09-19T07:01:49;18.70;99.90
31783;DHT22;18351;47.560;9.708;2023-09-19T07:04:16;18.90;99.90
31783;DHT22;18351;47.560;9.708;2023-09-19T07:06:43;18.90;99.90
31783;DHT22;18351;47.560;9.708;2023-09-19T07:09:08;18.90;99.90
31783;DHT22;18351;47.560;9.708;2023-09-19T07:11:35;19.00;99.90
31783;DHT22;18351;47.560;9.708;2023-09-19T07:14:00;19.00;99.90
31783;DHT22;18351;47.560;9.708;2023-09-19T07:16:28;19.00;99.90
31783;DHT22;18351;47.560;9.708;2023-09-19T07:18:55;19.10;99.90
31783;DHT22;18351;47.560;9.708;2023-09-19T07:21:22;19.10;99.90
31783;DHT22;18351;47.560;9.708;2023-09-19T07:23:48;19.20;99.90
31783;DHT22;18351;47.560;9.708;2023-09-19T07:26:13;19.20;99.90
31783;DHT22;18351;47.560;9.708;2023-09-19T07:28:39;19.30;99.90
31783;DHT22;18351;47.560;9.708;2023-09-19T07:31:04;19.30;99.90
31783;DHT22;18351;47.560;9.708;2023-09-19T07:33:30;19.40;99.90
31783;DHT22;18351;47.560;9.708;2023-09-19T07:35:56;19.50;99.90
31783;DHT22;18351;47.560;9.708;2023-09-19T07:38:22;19.60;99.90
31783;DHT22;18351;47.560;9.708;2023-09-19T07:40:48;19.70;99.90
31783;DHT22;18351;47.560;9.708;2023-09-19T07:43:14;19.80;99.90
31783;DHT22;18351;47.560;9.708;2023-09-19T07:45:39;19.80;99.90
31783;DHT22;18351;47.560;9.708;2023-09-19T07:48:05;19.80;99.90
31783;DHT22;18351;47.560;9.708;2023-09-19T07:50:34;19.80;99.90
31783;DHT22;18351;47.560;9.708;2023-09-19T07:53:02;19.90;99.90
31783;DHT22;18351;47.560;9.708;2023-09-19T07:55:30;19.90;99.90
31783;DHT22;18351;47.560;9.708;2023-09-19T07:57:56;19.90;99.90
31783;DHT22;18351;47.560;9.708;2023-09-19T08:00:21;19.90;99.90
31783;DHT22;18351;47.560;9.708;2023-09-19T08:02:47;20.00;99.90
31783;DHT22;18351;47.560;9.708;2023-09-19T08:05:17;20.00;99.90
31783;DHT22;18351;47.560;9.708;2023-09-19T08:07:45;20.10;99.90
31783;DHT22;18351;47.560;9.708;2023-09-19T08:10:14;20.10;99.90
31783;DHT22;18351;47.560;9.708;2023-09-19T08:12:45;20.10;99.90
31783;DHT22;18351;47.560;9.708;2023-09-19T08:15:14;20.30;99.90
31783;DHT22;18351;47.560;9.708;2023-09-19T08:17:41;20.40;99.90
31783;DHT22;18351;47.560;9.708;2023-09-19T08:20:07;20.40;99.90
31783;DHT22;18351;47.560;9.708;2023-09-19T08:25:14;20.40;99.90
31783;DHT22;18351;47.560;9.708;2023-09-19T08:27:39;20.30;99.90
31783;DHT22;18351;47.560;9.708;2023-09-19T08:30:05;20.20;99.90
31783;DHT22;18351;47.560;9.708;2023-09-19T08:32:31;20.20;99.90
31783;DHT22;18351;47.560;9.708;2023-09-19T08:34:57;20.20;99.90
31783;DHT22;18351;47.560;9.708;2023-09-19T08:37:22;20.20;99.90
31783;DHT22;18351;47.560;9.708;2023-09-19T08:39:48;20.20;99.90
31783;DHT22;18351;47.560;9.708;2023-09-19T08:42:13;20.20;99.90
31783;DHT22;18351;47.560;9.708;2023-09-19T08:44:42;20.30;99.90
31783;DHT22;18351;47.560;9.708;2023-09-19T08:47:10;20.30;99.90
31783;DHT22;18351;47.560;9.708;2023-09-19T08:49:59;20.20;99.90
31783;DHT22;18351;47.560;9.708;2023-09-19T08:52:30;20.20;99.90
31783;DHT22;18351;47.560;9.708;2023-09-19T08:54:59;20.20;99.90
31783;DHT22;18351;47.560;9.708;2023-09-19T08:57:33;20.20;99.90
31783;DHT22;18351;47.560;9.708;2023-09-19T09:00:02;20.30;99.90
31783;DHT22;18351;47.560;9.708;2023-09-19T09:02:31;20.30;99.90
31783;DHT22;18351;47.560;9.708;2023-09-19T09:04:59;20.40;99.90
31783;DHT22;18351;47.560;9.708;2023-09-19T09:07:25;20.50;99.90
31783;DHT22;18351;47.560;9.708;2023-09-19T09:09:53;20.50;99.90
31783;DHT22;18351;47.560;9.708;2023-09-19T09:12:18;20.60;99.90
31783;DHT22;18351;47.560;9.708;2023-09-19T09:14:45;20.90;99.90
31783;DHT22;18351;47.560;9.708;2023-09-19T09:17:14;21.10;99.90
31783;DHT22;18351;47.560;9.708;2023-09-19T09:19:39;21.10;99.90
31783;DHT22;18351;47.560;9.708;2023-09-19T09:22:10;21.10;99.90
31783;DHT22;18351;47.560;9.708;2023-09-19T09:24:37;21.10;99.90
31783;DHT22;18351;47.560;9.708;2023-09-19T09:27:06;21.10;99.90
31783;DHT22;18351;47.560;9.708;2023-09-19T09:29:48;21.20;99.90
31783;DHT22;18351;47.560;9.708;2023-09-19T09:32:27;21.30;99.90
31783;DHT22;18351;47.560;9.708;2023-09-19T09:34:58;21.30;99.90
31783;DHT22;18351;47.560;9.708;2023-09-19T09:37:24;21.30;99.90
31783;DHT22;18351;47.560;9.708;2023-09-19T09:40:10;21.40;99.90
31783;DHT22;18351;47.560;9.708;2023-09-19T09:42:41;21.40;99.90
31783;DHT22;18351;47.560;9.708;2023-09-19T09:47:46;21.40;99.90
31783;DHT22;18351;47.560;9.708;2023-09-19T09:50:29;21.40;99.90
31783;DHT22;18351;47.560;9.708;2023-09-19T09:53:27;21.40;99.90
31783;DHT22;18351;47.560;9.708;2023-09-19T09:56:03;21.40;99.90
31783;DHT22;18351;47.560;9.708;2023-09-19T09:58:53;21.50;99.90
31783;DHT22;18351;47.560;9.708;2023-09-19T10:01:20;21.70;99.90
31783;DHT22;18351;47.560;9.708;2023-09-19T10:03:46;21.80;99.90
31783;DHT22;18351;47.560;9.708;2023-09-19T10:06:17;22.00;99.90
31783;DHT22;18351;47.560;9.708;2023-09-19T10:09:17;22.20;99.90
31783;DHT22;18351;47.560;9.708;2023-09-19T10:11:47;22.40;99.90
31783;DHT22;18351;47.560;9.708;2023-09-19T10:14:20;22.40;99.90
31783;DHT22;18351;47.560;9.708;2023-09-19T10:16:49;22.40;99.90
31783;DHT22;18351;47.560;9.708;2023-09-19T10:19:26;22.50;99.90
31783;DHT22;18351;47.560;9.708;2023-09-19T10:21:55;22.50;99.90
31783;DHT22;18351;47.560;9.708;2023-09-19T10:24:22;22.50;99.90
31783;DHT22;18351;47.560;9.708;2023-09-19T10:26:50;22.50;99.90
31783;DHT22;18351;47.560;9.708;2023-09-19T10:29:17;22.20;99.90
31783;DHT22;18351;47.560;9.708;2023-09-19T10:31:47;22.00;99.90
31783;DHT22;18351;47.560;9.708;2023-09-19T10:34:15;21.90;99.90
31783;DHT22;18351;47.560;9.708;2023-09-19T10:36:44;21.70;99.90
31783;DHT22;18351;47.560;9.708;2023-09-19T10:39:11;21.70;99.90
31783;DHT22;18351;47.560;9.708;2023-09-19T10:41:39;21.80;99.90
31783;DHT22;18351;47.560;9.708;2023-09-19T10:44:05;21.90;99.90
31783;DHT22;18351;47.560;9.708;2023-09-19T10:46:32;22.10;99.90
31783;DHT22;18351;47.560;9.708;2023-09-19T10:49:02;22.20;99.90
31783;DHT22;18351;47.560;9.708;2023-09-19T10:51:39;22.40;99.90
31783;DHT22;18351;47.560;9.708;2023-09-19T10:54:12;22.50;99.90
31783;DHT22;18351;47.560;9.708;2023-09-19T10:56:42;22.60;99.90
31783;DHT22;18351;47.560;9.708;2023-09-19T10:59:14;22.60;99.90
31783;DHT22;18351;47.560;9.708;2023-09-19T11:01:49;22.80;99.90
31783;DHT22;18351;47.560;9.708;2023-09-19T11:04:25;22.90;99.90
31783;DHT22;18351;47.560;9.708;2023-09-19T11:09:43;23.00;99.90
31783;DHT22;18351;47.560;9.708;2023-09-19T11:12:12;23.00;99.90
31783;DHT22;18351;47.560;9.708;2023-09-19T11:14:39;23.00;99.90
31783;DHT22;18351;47.560;9.708;2023-09-19T11:30:48;23.00;99.70
31783;DHT22;18351;47.560;9.708;2023-09-19T11:33:26;22.80;99.10
31783;DHT22;18351;47.560;9.708;2023-09-19T11:41:37;22.60;98.80
31783;DHT22;18351;47.560;9.708;2023-09-19T11:49:27;22.50;98.30
31783;DHT22;18351;47.560;9.708;2023-09-19T11:51:57;22.50;98.50
31783;DHT22;18351;47.560;9.708;2023-09-19T11:54:24;22.30;97.70
31783;DHT22;18351;47.560;9.708;2023-09-19T11:56:54;22.20;99.90
31783;DHT22;18351;47.560;9.708;2023-09-19T11:59:25;22.20;98.30
31783;DHT22;18351;47.560;9.708;2023-09-19T12:02:05;22.10;97.90
31783;DHT22;18351;47.560;9.708;2023-09-19T12:07:07;22.10;99.70
31783;DHT22;18351;47.560;9.708;2023-09-19T12:09:39;22.10;98.20
31783;DHT22;18351;47.560;9.708;2023-09-19T12:12:06;22.10;98.10
31783;DHT22;18351;47.560;9.708;2023-09-19T12:14:31;22.20;99.90
31783;DHT22;18351;47.560;9.708;2023-09-19T12:16:58;22.20;97.80
31783;DHT22;18351;47.560;9.708;2023-09-19T12:19:26;22.40;98.60
31783;DHT22;18351;47.560;9.708;2023-09-19T12:21:59;22.50;97.40
31783;DHT22;18351;47.560;9.708;2023-09-19T12:24:29;22.60;98.20
31783;DHT22;18351;47.560;9.708;2023-09-19T12:27:00;22.80;97.90
31783;DHT22;18351;47.560;9.708;2023-09-19T12:29:27;22.90;96.80
31783;DHT22;18351;47.560;9.708;2023-09-19T12:31:57;23.00;97.60
31783;DHT22;18351;47.560;9.708;2023-09-19T12:37:06;23.20;97.40
31783;DHT22;18351;47.560;9.708;2023-09-19T12:39:42;23.20;97.30
31783;DHT22;18351;47.560;9.708;2023-09-19T12:42:12;23.30;98.20
31783;DHT22;18351;47.560;9.708;2023-09-19T12:44:50;23.30;97.80
31783;DHT22;18351;47.560;9.708;2023-09-19T12:47:21;23.30;97.00
31783;DHT22;18351;47.560;9.708;2023-09-19T12:52:37;23.20;96.40
31783;DHT22;18351;47.560;9.708;2023-09-19T12:55:04;23.30;96.30
31783;DHT22;18351;47.560;9.708;2023-09-19T12:57:30;23.20;96.50
31783;DHT22;18351;47.560;9.708;2023-09-19T13:00:03;23.20;96.90
31783;DHT22;18351;47.560;9.708;2023-09-19T13:02:31;23.30;96.40
31783;DHT22;18351;47.560;9.708;2023-09-19T13:04:57;23.30;97.10
31783;DHT22;18351;47.560;9.708;2023-09-19T13:07:44;23.40;95.00
31783;DHT22;18351;47.560;9.708;2023-09-19T13:10:11;23.50;94.10
31783;DHT22;18351;47.560;9.708;2023-09-19T13:12:40;23.50;94.60
31783;DHT22;18351;47.560;9.708;2023-09-19T13:17:48;23.40;94.00
31783;DHT22;18351;47.560;9.708;2023-09-19T13:20:26;23.20;92.10
31783;DHT22;18351;47.560;9.708;2023-09-19T13:22:58;23.10;93.60
31783;DHT22;18351;47.560;9.708;2023-09-19T13:25:25;23.20;93.70
31783;DHT22;18351;47.560;9.708;2023-09-19T13:27:55;23.20;93.90
31783;DHT22;18351;47.560;9.708;2023-09-19T13:30:26;23.30;94.20
31783;DHT22;18351;47.560;9.708;2023-09-19T13:32:52;23.40;93.10
31783;DHT22;18351;47.560;9.708;2023-09-19T13:35:19;23.50;93.50
31783;DHT22;18351;47.560;9.708;2023-09-19T13:37:46;23.40;92.10
31783;DHT22;18351;47.560;9.708;2023-09-19T13:40:14;23.30;92.40
31783;DHT22;18351;47.560;9.708;2023-09-19T13:42:41;23.20;93.30
31783;DHT22;18351;47.560;9.708;2023-09-19T13:45:07;23.30;93.30
31783;DHT22;18351;47.560;9.708;2023-09-19T13:47:34;23.30;92.20
31783;DHT22;18351;47.560;9.708;2023-09-19T13:50:04;23.40;93.40
31783;DHT22;18351;47.560;9.708;2023-09-19T13:52:30;23.40;92.30
31783;DHT22;18351;47.560;9.708;2023-09-19T13:54:57;23.50;93.50
31783;DHT22;18351;47.560;9.708;2023-09-19T13:57:26;23.50;92.20
31783;DHT22;18351;47.560;9.708;2023-09-19T13:59:52;23.40;91.00
31783;DHT22;18351;47.560;9.708;2023-09-19T14:02:20;23.20;92.30
31783;DHT22;18351;47.560;9.708;2023-09-19T14:04:51;23.20;93.90
31783;DHT22;18351;47.560;9.708;2023-09-19T14:07:16;23.20;92.70
31783;DHT22;18351;47.560;9.708;2023-09-19T14:09:43;23.20;93.20
31783;DHT22;18351;47.560;9.708;2023-09-19T14:12:08;23.20;92.40
31783;DHT22;18351;47.560;9.708;2023-09-19T14:14:34;23.10;93.20
31783;DHT22;18351;47.560;9.708;2023-09-19T14:17:00;23.10;91.90
31783;DHT22;18351;47.560;9.708;2023-09-19T14:19:27;23.10;93.00
31783;DHT22;18351;47.560;9.708;2023-09-19T14:21:52;23.20;93.40
31783;DHT22;18351;47.560;9.708;2023-09-19T14:24:21;23.30;93.00
31783;DHT22;18351;47.560;9.708;2023-09-19T14:26:46;23.30;92.30
31783;DHT22;18351;47.560;9.708;2023-09-19T14:29:12;23.40;93.00
31783;DHT22;18351;47.560;9.708;2023-09-19T14:31:38;23.40;93.00
31783;DHT22;18351;47.560;9.708;2023-09-19T14:34:05;23.50;92.90
31783;DHT22;18351;47.560;9.708;2023-09-19T14:36:31;23.50;92.60
31783;DHT22;18351;47.560;9.708;2023-09-19T14:38:57;23.60;93.60
31783;DHT22;18351;47.560;9.708;2023-09-19T14:41:23;23.70;92.90
31783;DHT22;18351;47.560;9.708;2023-09-19T14:43:51;23.70;93.60
31783;DHT22;18351;47.560;9.708;2023-09-19T14:46:17;23.70;92.00
31783;DHT22;18351;47.560;9.708;2023-09-19T14:48:43;23.70;92.60
31783;DHT22;18351;47.560;9.708;2023-09-19T14:51:10;23.70;92.80
31783;DHT22;18351;47.560;9.708;2023-09-19T14:53:37;23.70;91.60
31783;DHT22;18351;47.560;9.708;2023-09-19T14:56:04;23.70;91.00
31783;DHT22;18351;47.560;9.708;2023-09-19T14:58:31;23.70;92.50
31783;DHT22;18351;47.560;9.708;2023-09-19T15:01:04;23.70;92.80
31783;DHT22;18351;47.560;9.708;2023-09-19T15:03:31;23.70;92.10
31783;DHT22;18351;47.560;9.708;2023-09-19T15:06:04;23.70;92.30
31783;DHT22;18351;47.560;9.708;2023-09-19T15:08:34;23.60;93.10
31783;DHT22;18351;47.560;9.708;2023-09-19T15:11:01;23.60;92.90
31783;DHT22;18351;47.560;9.708;2023-09-19T15:13:32;23.60;92.10
31783;DHT22;18351;47.560;9.708;2023-09-19T15:16:02;23.60;92.70
31783;DHT22;18351;47.560;9.708;2023-09-19T15:18:29;23.60;92.60
31783;DHT22;18351;47.560;9.708;2023-09-19T15:21:05;23.50;93.40
31783;DHT22;18351;47.560;9.708;2023-09-19T15:23:34;23.40;93.80
31783;DHT22;18351;47.560;9.708;2023-09-19T15:26:04;23.40;94.00
31783;DHT22;18351;47.560;9.708;2023-09-19T15:28:30;23.40;94.40
31783;DHT22;18351;47.560;9.708;2023-09-19T15:31:01;23.30;93.30
31783;DHT22;18351;47.560;9.708;2023-09-19T15:33:27;23.20;93.70
31783;DHT22;18351;47.560;9.708;2023-09-19T15:36:03;23.20;94.80
31783;DHT22;18351;47.560;9.708;2023-09-19T15:38:29;23.10;93.30
31783;DHT22;18351;47.560;9.708;2023-09-19T15:40:55;23.00;93.50
31783;DHT22;18351;47.560;9.708;2023-09-19T15:43:20;22.80;93.00
31783;DHT22;18351;47.560;9.708;2023-09-19T15:45:47;22.70;94.40
31783;DHT22;18351;47.560;9.708;2023-09-19T15:48:13;22.70;95.20
31783;DHT22;18351;47.560;9.708;2023-09-19T15:50:39;22.70;95.60
31783;DHT22;18351;47.560;9.708;2023-09-19T15:53:07;22.60;95.10
31783;DHT22;18351;47.560;9.708;2023-09-19T15:55:42;22.60;94.60
31783;DHT22;18351;47.560;9.708;2023-09-19T15:58:09;22.60;94.50
31783;DHT22;18351;47.560;9.708;2023-09-19T16:00:39;22.60;95.80
31783;DHT22;18351;47.560;9.708;2023-09-19T16:03:06;22.60;95.70
31783;DHT22;18351;47.560;9.708;2023-09-19T16:05:37;22.50;95.40
31783;DHT22;18351;47.560;9.708;2023-09-19T16:08:05;22.40;94.70
31783;DHT22;18351;47.560;9.708;2023-09-19T16:10:35;22.40;94.80
31783;DHT22;18351;47.560;9.708;2023-09-19T16:13:02;22.30;94.90
31783;DHT22;18351;47.560;9.708;2023-09-19T16:15:28;22.20;95.20
31783;DHT22;18351;47.560;9.708;2023-09-19T16:17:54;22.20;95.00
31783;DHT22;18351;47.560;9.708;2023-09-19T16:20:20;22.10;94.70
31783;DHT22;18351;47.560;9.708;2023-09-19T16:22:48;22.10;95.30
31783;DHT22;18351;47.560;9.708;2023-09-19T16:25:14;21.90;95.60
31783;DHT22;18351;47.560;9.708;2023-09-19T16:27:39;21.90;95.60
31783;DHT22;18351;47.560;9.708;2023-09-19T16:30:06;21.90;96.60
31783;DHT22;18351;47.560;9.708;2023-09-19T16:32:31;21.80;97.30
31783;DHT22;18351;47.560;9.708;2023-09-19T16:34:58;21.80;97.70
31783;DHT22;18351;47.560;9.708;2023-09-19T16:37:24;21.70;98.30
31783;DHT22;18351;47.560;9.708;2023-09-19T16:39:50;21.70;98.00